sensor_id;sensor_type;location;lat;lon;timestamp;pressure;altitude;pressure_sealevel;temperature;humidity
4141;BME280;2084;51.05870200;6.92092300;2022-08-21T00:00:22;54620.19;;;-144.41;70.89
4141;BME280;2084;51.05870200;6.92092300;2022-08-21T00:02:51;54643.91;;;-144.41;71.09
4141;BME280;2084;51.05870200;6.92092300;2022-08-21T00:05:18;54630.06;;;-144.41;70.64
4141;BME280;2084;51.05870200;6.92092300;2022-08-21T00:07:45;54612.28;;;-144.41;70.68
4141;BME280;2084;51.05870200;6.92092300;2022-08-21T00:10:12;54600.44;;;-144.41;71.09
4141;BME280;2084;51.05870200;6.92092300;2022-08-21T00:12:40;54580.69;;;-144.41;70.77
4141;BME280;2084;51.05870200;6.92092300;2022-08-21T00:15:09;54616.25;;;-144.41;70.04
4141;BME280;2084;51.05870200;6.92092300;2022-08-21T00:17:38;54590.56;;;-144.41;69.80
4141;BME280;2084;51.05870200;6.92092300;2022-08-21T00:20:06;54588.59;;;-144.41;69.79
4141;BME280;2084;51.05870200;6.92092300;2022-08-21T00:22:34;54637.97;;;-144.41;69.64
4141;BME280;2084;51.05870200;6.92092300;2022-08-21T00:25:01;54588.59;;;-144.41;69.02
4141;BME280;2084;51.05870200;6.92092300;2022-08-21T00:27:27;54592.53;;;-144.41;69.25
4141;BME280;2084;51.05870200;6.92092300;2022-08-21T00:29:54;54572.78;;;-144.41;69.64
4141;BME280;2084;51.05870200;6.92092300;2022-08-21T00:32:21;54584.63;;;-144.41;69.53
4141;BME280;2084;51.05870200;6.92092300;2022-08-21T00:34:50;54628.09;;;-144.41;69.28
4141;BME280;2084;51.05870200;6.92092300;2022-08-21T00:37:17;54604.38;;;-144.41;69.57
4141;BME280;2084;51.05870200;6.92092300;2022-08-21T00:39:44;54592.53;;;-144.41;69.79
4141;BME280;2084;51.05870200;6.92092300;2022-08-21T00:42:11;54612.28;;;-144.41;70.12
4141;BME280;2084;51.05870200;6.92092300;2022-08-21T00:44:40;54580.69;;;-144.41;70.58
4141;BME280;2084;51.05870200;6.92092300;2022-08-21T00:47:07;54590.56;;;-144.41;71.16
4141;BME280;2084;51.05870200;6.92092300;2022-08-21T00:49:34;54580.69;;;-144.41;71.47
4141;BME280;2084;51.05870200;6.92092300;2022-08-21T00:52:03;54600.44;;;-144.41;71.70
4141;BME280;2084;51.05870200;6.92092300;2022-08-21T00:54:33;54584.63;;;-144.41;72.07
4141;BME280;2084;51.05870200;6.92092300;2022-08-21T00:57:03;54566.84;;;-144.41;72.24
4141;BME280;2084;51.05870200;6.92092300;2022-08-21T00:59:33;54616.25;;;-144.41;72.67
4141;BME280;2084;51.05870200;6.92092300;2022-08-21T01:02:01;54610.31;;;-144.41;72.83
4141;BME280;2084;51.05870200;6.92092300;2022-08-21T01:04:28;54560.94;;;-144.41;72.59
4141;BME280;2084;51.05870200;6.92092300;2022-08-21T01:06:54;54572.78;;;-144.41;72.53
4141;BME280;2084;51.05870200;6.92092300;2022-08-21T01:09:22;54549.06;;;-144.41;72.79
4141;BME280;2084;51.05870200;6.92092300;2022-08-21T01:11:49;54541.16;;;-144.41;73.25
4141;BME280;2084;51.05870200;6.92092300;2022-08-21T01:14:16;54556.97;;;-144.41;73.23
4141;BME280;2084;51.05870200;6.92092300;2022-08-21T01:16:46;54529.31;;;-144.41;73.16
4141;BME280;2084;51.05870200;6.92092300;2022-08-21T01:19:15;54568.81;;;-144.41;72.82
4141;BME280;2084;51.05870200;6.92092300;2022-08-21T01:21:45;54560.94;;;-144.41;72.81
4141;BME280;2084;51.05870200;6.92092300;2022-08-21T01:24:12;54582.66;;;-144.41;72.98
4141;BME280;2084;51.05870200;6.92092300;2022-08-21T01:26:40;54529.31;;;-144.41;73.75
4141;BME280;2084;51.05870200;6.92092300;2022-08-21T01:29:12;54608.34;;;-144.41;73.71
4141;BME280;2084;51.05870200;6.92092300;2022-08-21T01:31:40;54584.63;;;-144.41;73.50
4141;BME280;2084;51.05870200;6.92092300;2022-08-21T01:34:08;54572.78;;;-144.41;74.04
4141;BME280;2084;51.05870200;6.92092300;2022-08-21T01:36:35;54545.13;;;-144.41;73.87
4141;BME280;2084;51.05870200;6.92092300;2022-08-21T01:39:04;54584.63;;;-144.41;73.99
4141;BME280;2084;51.05870200;6.92092300;2022-08-21T01:41:31;54481.91;;;-144.41;74.08
4141;BME280;2084;51.05870200;6.92092300;2022-08-21T01:43:58;54521.41;;;-144.41;73.71
4141;BME280;2084;51.05870200;6.92092300;2022-08-21T01:46:24;54523.38;;;-144.41;73.77
4141;BME280;2084;51.05870200;6.92092300;2022-08-21T01:48:51;54533.25;;;-144.41;73.61
4141;BME280;2084;51.05870200;6.92092300;2022-08-21T01:51:18;54505.59;;;-144.41;73.87
4141;BME280;2084;51.05870200;6.92092300;2022-08-21T01:53:44;54529.31;;;-144.41;73.91
4141;BME280;2084;51.05870200;6.92092300;2022-08-21T01:56:15;54517.47;;;-144.41;73.78
4141;BME280;2084;51.05870200;6.92092300;2022-08-21T01:58:44;54576.72;;;-144.41;73.58
4141;BME280;2084;51.05870200;6.92092300;2022-08-21T02:01:12;54537.22;;;-144.41;73.35
4141;BME280;2084;51.05870200;6.92092300;2022-08-21T02:03:39;54517.47;;;-144.41;73.45
4141;BME280;2084;51.05870200;6.92092300;2022-08-21T02:06:10;54525.38;;;-144.41;73.93
4141;BME280;2084;51.05870200;6.92092300;2022-08-21T02:08:38;54537.22;;;-144.41;73.80
4141;BME280;2084;51.05870200;6.92092300;2022-08-21T02:11:05;54537.22;;;-144.41;74.11
4141;BME280;2084;51.05870200;6.92092300;2022-08-21T02:13:33;54509.56;;;-144.41;74.52
4141;BME280;2084;51.05870200;6.92092300;2022-08-21T02:16:00;54525.38;;;-144.41;74.58
4141;BME280;2084;51.05870200;6.92092300;2022-08-21T02:18:26;54501.66;;;-144.41;74.79
4141;BME280;2084;51.05870200;6.92092300;2022-08-21T02:20:53;54519.44;;;-144.41;74.40
4141;BME280;2084;51.05870200;6.92092300;2022-08-21T02:23:19;54472.03;;;-144.41;74.88
4141;BME280;2084;51.05870200;6.92092300;2022-08-21T02:25:46;54454.25;;;-144.41;75.23
4141;BME280;2084;51.05870200;6.92092300;2022-08-21T02:28:14;54414.72;;;-144.41;75.81
4141;BME280;2084;51.05870200;6.92092300;2022-08-21T02:30:44;54434.47;;;-144.41;76.33
4141;BME280;2084;51.05870200;6.92092300;2022-08-21T02:33:12;54422.63;;;-144.41;76.25
4141;BME280;2084;51.05870200;6.92092300;2022-08-21T02:35:41;54402.88;;;-144.41;76.40
4141;BME280;2084;51.05870200;6.92092300;2022-08-21T02:38:13;54394.97;;;-144.41;76.84
4141;BME280;2084;51.05870200;6.92092300;2022-08-21T02:40:41;54387.06;;;-144.41;77.29
4141;BME280;2084;51.05870200;6.92092300;2022-08-21T02:43:09;54347.56;;;-144.41;77.37
4141;BME280;2084;51.05870200;6.92092300;2022-08-21T02:45:36;54383.13;;;-144.41;77.19
4141;BME280;2084;51.05870200;6.92092300;2022-08-21T02:48:08;54375.22;;;-144.41;77.23
4141;BME280;2084;51.05870200;6.92092300;2022-08-21T02:50:37;54381.13;;;-144.41;77.43
4141;BME280;2084;51.05870200;6.92092300;2022-08-21T02:53:05;54339.66;;;-144.41;76.82
4141;BME280;2084;51.05870200;6.92092300;2022-08-21T02:55:33;54375.22;;;-144.41;76.69
4141;BME280;2084;51.05870200;6.92092300;2022-08-21T02:58:00;54418.69;;;-144.41;76.50
4141;BME280;2084;51.05870200;6.92092300;2022-08-21T03:00:29;54400.91;;;-144.41;76.05
4141;BME280;2084;51.05870200;6.92092300;2022-08-21T03:02:56;54452.25;;;-144.41;76.09
4141;BME280;2084;51.05870200;6.92092300;2022-08-21T03:05:26;54402.88;;;-144.41;76.04
4141;BME280;2084;51.05870200;6.92092300;2022-08-21T03:07:54;54393.00;;;-144.41;76.14
4141;BME280;2084;51.05870200;6.92092300;2022-08-21T03:10:22;54446.34;;;-144.41;75.99
4141;BME280;2084;51.05870200;6.92092300;2022-08-21T03:12:48;54434.47;;;-144.41;75.52
4141;BME280;2084;51.05870200;6.92092300;2022-08-21T03:15:20;54438.44;;;-144.41;75.74
4141;BME280;2084;51.05870200;6.92092300;2022-08-21T03:17:48;54458.19;;;-144.41;75.44
4141;BME280;2084;51.05870200;6.92092300;2022-08-21T03:20:16;54485.84;;;-144.41;75.02
4141;BME280;2084;51.05870200;6.92092300;2022-08-21T03:22:44;54430.53;;;-144.41;75.05
4141;BME280;2084;51.05870200;6.92092300;2022-08-21T03:25:11;54464.13;;;-144.41;75.28
4141;BME280;2084;51.05870200;6.92092300;2022-08-21T03:27:38;54442.38;;;-144.41;75.23
4141;BME280;2084;51.05870200;6.92092300;2022-08-21T03:30:06;54414.72;;;-144.41;75.38
4141;BME280;2084;51.05870200;6.92092300;2022-08-21T03:32:33;54418.69;;;-144.41;75.70
4141;BME280;2084;51.05870200;6.92092300;2022-08-21T03:35:00;54468.06;;;-144.41;75.56
4141;BME280;2084;51.05870200;6.92092300;2022-08-21T03:37:27;54448.31;;;-144.41;75.14
4141;BME280;2084;51.05870200;6.92092300;2022-08-21T03:39:55;54470.03;;;-144.41;75.04
4141;BME280;2084;51.05870200;6.92092300;2022-08-21T03:42:22;54485.84;;;-144.41;75.27
4141;BME280;2084;51.05870200;6.92092300;2022-08-21T03:44:49;54472.03;;;-144.41;75.38
4141;BME280;2084;51.05870200;6.92092300;2022-08-21T03:47:15;54865.19;;;-144.41;74.98
4141;BME280;2084;51.05870200;6.92092300;2022-08-21T03:49:42;54418.69;;;-144.41;75.33
4141;BME280;2084;51.05870200;6.92092300;2022-08-21T03:52:08;54501.66;;;-144.41;75.31
4141;BME280;2084;51.05870200;6.92092300;2022-08-21T03:54:35;54474.00;;;-144.41;75.08
4141;BME280;2084;51.05870200;6.92092300;2022-08-21T03:57:03;54434.47;;;-144.41;74.89
4141;BME280;2084;51.05870200;6.92092300;2022-08-21T03:59:29;54442.38;;;-144.41;74.57
4141;BME280;2084;51.05870200;6.92092300;2022-08-21T04:01:58;54389.03;;;-144.41;74.45
4141;BME280;2084;51.05870200;6.92092300;2022-08-21T04:04:27;54393.00;;;-144.41;74.92
4141;BME280;2084;51.05870200;6.92092300;2022-08-21T04:06:54;54472.03;;;-144.41;74.75
4141;BME280;2084;51.05870200;6.92092300;2022-08-21T04:09:22;54430.53;;;-144.41;74.96
4141;BME280;2084;51.05870200;6.92092300;2022-08-21T04:11:49;54436.47;;;-144.41;75.20
4141;BME280;2084;51.05870200;6.92092300;2022-08-21T04:14:19;54458.19;;;-144.41;74.81
4141;BME280;2084;51.05870200;6.92092300;2022-08-21T04:16:46;54474.00;;;-144.41;74.67
4141;BME280;2084;51.05870200;6.92092300;2022-08-21T04:19:13;54426.56;;;-144.41;74.68
4141;BME280;2084;51.05870200;6.92092300;2022-08-21T04:21:41;54426.56;;;-144.41;74.99
4141;BME280;2084;51.05870200;6.92092300;2022-08-21T04:24:09;54402.88;;;-144.41;75.49
4141;BME280;2084;51.05870200;6.92092300;2022-08-21T04:26:36;54408.78;;;-144.41;75.38
4141;BME280;2084;51.05870200;6.92092300;2022-08-21T04:29:04;54414.72;;;-144.41;75.52
4141;BME280;2084;51.05870200;6.92092300;2022-08-21T04:31:33;54432.50;;;-144.41;75.43
4141;BME280;2084;51.05870200;6.92092300;2022-08-21T04:34:00;54408.78;;;-144.41;75.65
4141;BME280;2084;51.05870200;6.92092300;2022-08-21T04:36:26;54422.63;;;-144.41;75.82
4141;BME280;2084;51.05870200;6.92092300;2022-08-21T04:38:53;54414.72;;;-144.41;75.86
4141;BME280;2084;51.05870200;6.92092300;2022-08-21T04:41:19;54432.50;;;-144.41;75.67
4141;BME280;2084;51.05870200;6.92092300;2022-08-21T04:43:46;54422.63;;;-144.41;75.78
4141;BME280;2084;51.05870200;6.92092300;2022-08-21T04:46:12;54450.28;;;-144.41;75.77
4141;BME280;2084;51.05870200;6.92092300;2022-08-21T04:48:40;54466.09;;;-144.41;75.59
4141;BME280;2084;51.05870200;6.92092300;2022-08-21T04:51:10;54446.34;;;-144.41;75.58
4141;BME280;2084;51.05870200;6.92092300;2022-08-21T04:53:41;54454.25;;;-144.41;75.75
4141;BME280;2084;51.05870200;6.92092300;2022-08-21T04:56:12;54462.13;;;-144.41;75.90
4141;BME280;2084;51.05870200;6.92092300;2022-08-21T04:58:40;54509.56;;;-144.41;75.76
4141;BME280;2084;51.05870200;6.92092300;2022-08-21T05:01:12;54470.03;;;-144.41;75.93
4141;BME280;2084;51.05870200;6.92092300;2022-08-21T05:03:40;54485.84;;;-144.41;76.79
4141;BME280;2084;51.05870200;6.92092300;2022-08-21T05:06:10;54671.56;;;-144.41;76.61
4141;BME280;2084;51.05870200;6.92092300;2022-08-21T05:08:38;54537.22;;;-144.41;76.48
4141;BME280;2084;51.05870200;6.92092300;2022-08-21T05:11:06;54493.75;;;-144.41;77.11
4141;BME280;2084;51.05870200;6.92092300;2022-08-21T05:13:33;54505.59;;;-144.41;76.77
4141;BME280;2084;51.05870200;6.92092300;2022-08-21T05:15:59;54541.16;;;-144.41;76.53
4141;BME280;2084;51.05870200;6.92092300;2022-08-21T05:18:26;54568.81;;;-144.41;76.40
4141;BME280;2084;51.05870200;6.92092300;2022-08-21T05:20:54;54582.66;;;-144.41;76.27
4141;BME280;2084;51.05870200;6.92092300;2022-08-21T05:23:20;54582.66;;;-144.41;76.16
4141;BME280;2084;51.05870200;6.92092300;2022-08-21T05:25:47;54584.63;;;-144.41;76.06
4141;BME280;2084;51.05870200;6.92092300;2022-08-21T05:28:13;54711.09;;;-144.41;76.04
4141;BME280;2084;51.05870200;6.92092300;2022-08-21T05:30:40;54608.34;;;-144.41;75.54
4141;BME280;2084;51.05870200;6.92092300;2022-08-21T05:33:06;54592.53;;;-144.41;75.94
4141;BME280;2084;51.05870200;6.92092300;2022-08-21T05:35:33;54636.00;;;-144.41;75.87
4141;BME280;2084;51.05870200;6.92092300;2022-08-21T05:38:02;54602.41;;;-144.41;75.72
4141;BME280;2084;51.05870200;6.92092300;2022-08-21T05:40:28;54614.28;;;-144.41;75.51
4141;BME280;2084;51.05870200;6.92092300;2022-08-21T05:42:55;54691.31;;;-144.41;75.05
4141;BME280;2084;51.05870200;6.92092300;2022-08-21T05:45:26;54647.84;;;-144.41;74.72
4141;BME280;2084;51.05870200;6.92092300;2022-08-21T05:47:53;54659.72;;;-144.41;74.62
4141;BME280;2084;51.05870200;6.92092300;2022-08-21T05:50:20;54649.84;;;-144.41;74.68
4141;BME280;2084;51.05870200;6.92092300;2022-08-21T05:52:46;54659.72;;;-144.41;74.95
4141;BME280;2084;51.05870200;6.92092300;2022-08-21T05:55:14;54612.28;;;-144.41;74.41
4141;BME280;2084;51.05870200;6.92092300;2022-08-21T05:57:41;54703.19;;;-144.41;74.25
4141;BME280;2084;51.05870200;6.92092300;2022-08-21T06:00:08;54687.38;;;-144.41;74.15
4141;BME280;2084;51.05870200;6.92092300;2022-08-21T06:02:37;54683.41;;;-144.41;73.69
4141;BME280;2084;51.05870200;6.92092300;2022-08-21T06:05:04;54695.28;;;-144.41;73.48
4141;BME280;2084;51.05870200;6.92092300;2022-08-21T06:07:31;54667.63;;;-144.41;72.95
4141;BME280;2084;51.05870200;6.92092300;2022-08-21T06:09:57;54726.88;;;-144.41;73.01
4141;BME280;2084;51.05870200;6.92092300;2022-08-21T06:12:25;54685.41;;;-144.41;73.03
4141;BME280;2084;51.05870200;6.92092300;2022-08-21T06:14:52;54734.78;;;-144.41;72.72
4141;BME280;2084;51.05870200;6.92092300;2022-08-21T06:17:18;54699.22;;;-144.41;72.72
4141;BME280;2084;51.05870200;6.92092300;2022-08-21T06:19:45;54738.75;;;-144.41;72.71
4141;BME280;2084;51.05870200;6.92092300;2022-08-21T06:22:11;54711.09;;;-144.41;72.67
4141;BME280;2084;51.05870200;6.92092300;2022-08-21T06:24:38;54750.59;;;-144.41;72.22
4141;BME280;2084;51.05870200;6.92092300;2022-08-21T06:27:05;54774.31;;;-144.41;72.28
4141;BME280;2084;51.05870200;6.92092300;2022-08-21T06:29:34;54766.41;;;-144.41;71.96
4141;BME280;2084;51.05870200;6.92092300;2022-08-21T06:32:01;54742.69;;;-144.41;71.53
4141;BME280;2084;51.05870200;6.92092300;2022-08-21T06:34:28;54782.22;;;-144.41;71.82
4141;BME280;2084;51.05870200;6.92092300;2022-08-21T06:36:54;54774.31;;;-144.41;71.29
4141;BME280;2084;51.05870200;6.92092300;2022-08-21T06:39:21;54833.59;;;-144.41;71.16
4141;BME280;2084;51.05870200;6.92092300;2022-08-21T06:41:47;54813.81;;;-144.41;70.89
4141;BME280;2084;51.05870200;6.92092300;2022-08-21T06:44:16;54829.63;;;-144.41;70.82
4141;BME280;2084;51.05870200;6.92092300;2022-08-21T06:46:44;54845.44;;;-144.41;70.89
4141;BME280;2084;51.05870200;6.92092300;2022-08-21T06:49:10;54821.72;;;-144.41;70.66
4141;BME280;2084;51.05870200;6.92092300;2022-08-21T06:51:38;54841.50;;;-144.41;70.01
4141;BME280;2084;51.05870200;6.92092300;2022-08-21T06:54:05;54821.72;;;-144.41;69.71
4141;BME280;2084;51.05870200;6.92092300;2022-08-21T06:56:31;54784.19;;;-144.41;68.63
4141;BME280;2084;51.05870200;6.92092300;2022-08-21T06:58:58;54762.47;;;-144.41;68.83
4141;BME280;2084;51.05870200;6.92092300;2022-08-21T07:01:26;54845.44;;;-144.41;68.08
4141;BME280;2084;51.05870200;6.92092300;2022-08-21T07:03:54;54813.81;;;-144.41;68.60
4141;BME280;2084;51.05870200;6.92092300;2022-08-21T07:06:21;54845.44;;;-144.41;68.18
4141;BME280;2084;51.05870200;6.92092300;2022-08-21T07:08:47;54865.19;;;-144.41;68.75
4141;BME280;2084;51.05870200;6.92092300;2022-08-21T07:11:17;54857.28;;;-144.41;67.12
4141;BME280;2084;51.05870200;6.92092300;2022-08-21T07:13:44;54920.53;;;-144.41;66.14
4141;BME280;2084;51.05870200;6.92092300;2022-08-21T07:16:11;54920.53;;;-144.41;66.74
4141;BME280;2084;51.05870200;6.92092300;2022-08-21T07:18:37;54900.78;;;-144.41;65.84
4141;BME280;2084;51.05870200;6.92092300;2022-08-21T07:21:07;54884.97;;;-144.41;63.79
4141;BME280;2084;51.05870200;6.92092300;2022-08-21T07:23:37;54920.53;;;-144.41;63.49
4141;BME280;2084;51.05870200;6.92092300;2022-08-21T07:26:06;54938.31;;;-144.41;64.46
4141;BME280;2084;51.05870200;6.92092300;2022-08-21T07:28:33;55066.75;;;-144.41;64.03
4141;BME280;2084;51.05870200;6.92092300;2022-08-21T07:31:00;55118.13;;;-144.41;64.02
4141;BME280;2084;51.05870200;6.92092300;2022-08-21T07:33:30;55145.78;;;-144.41;62.54
4141;BME280;2084;51.05870200;6.92092300;2022-08-21T07:35:57;55153.69;;;-144.41;60.72
4141;BME280;2084;51.05870200;6.92092300;2022-08-21T07:38:25;55102.31;;;-144.41;60.66
4141;BME280;2084;51.05870200;6.92092300;2022-08-21T07:40:54;55072.69;;;-144.41;61.21
4141;BME280;2084;51.05870200;6.92092300;2022-08-21T07:43:21;55003.53;;;-144.41;61.42
4141;BME280;2084;51.05870200;6.92092300;2022-08-21T07:45:48;55025.25;;;-144.41;62.89
4141;BME280;2084;51.05870200;6.92092300;2022-08-21T07:48:15;55072.69;;;-144.41;62.10
4141;BME280;2084;51.05870200;6.92092300;2022-08-21T07:50:42;55114.19;;;-144.41;61.90
4141;BME280;2084;51.05870200;6.92092300;2022-08-21T07:53:09;55066.75;;;-144.41;60.95
4141;BME280;2084;51.05870200;6.92092300;2022-08-21T07:55:37;55015.38;;;-144.41;61.19
4141;BME280;2084;51.05870200;6.92092300;2022-08-21T07:58:04;54999.56;;;-144.41;61.69
4141;BME280;2084;51.05870200;6.92092300;2022-08-21T08:00:30;55090.47;;;-144.41;61.73
4141;BME280;2084;51.05870200;6.92092300;2022-08-21T08:02:57;55145.78;;;-144.41;61.15
4141;BME280;2084;51.05870200;6.92092300;2022-08-21T08:05:26;55226.81;;;-144.41;60.43
4141;BME280;2084;51.05870200;6.92092300;2022-08-21T08:07:53;55173.47;;;-144.41;60.48
4141;BME280;2084;51.05870200;6.92092300;2022-08-21T08:10:20;55256.47;;;-144.41;60.11
4141;BME280;2084;51.05870200;6.92092300;2022-08-21T08:12:49;55189.28;;;-144.41;60.16
4141;BME280;2084;51.05870200;6.92092300;2022-08-21T08:15:20;55246.56;;;-144.41;60.04
4141;BME280;2084;51.05870200;6.92092300;2022-08-21T08:17:47;55299.94;;;-144.41;59.49
4141;BME280;2084;51.05870200;6.92092300;2022-08-21T08:20:15;55276.22;;;-144.41;59.35
4141;BME280;2084;51.05870200;6.92092300;2022-08-21T08:22:43;55262.38;;;-144.41;58.68
4141;BME280;2084;51.05870200;6.92092300;2022-08-21T08:25:11;55175.44;;;-144.41;57.25
4141;BME280;2084;51.05870200;6.92092300;2022-08-21T08:27:38;55216.94;;;-144.41;56.67
4141;BME280;2084;51.05870200;6.92092300;2022-08-21T08:30:10;55189.28;;;-144.41;56.37
4141;BME280;2084;51.05870200;6.92092300;2022-08-21T08:32:37;55220.88;;;-144.41;56.34
4141;BME280;2084;51.05870200;6.92092300;2022-08-21T08:35:05;55191.25;;;-144.41;56.13
4141;BME280;2084;51.05870200;6.92092300;2022-08-21T08:37:32;55205.06;;;-144.41;55.82
4141;BME280;2084;51.05870200;6.92092300;2022-08-21T08:39:59;55209.03;;;-144.41;57.33
4141;BME280;2084;51.05870200;6.92092300;2022-08-21T08:42:30;55236.69;;;-144.41;56.15
4141;BME280;2084;51.05870200;6.92092300;2022-08-21T08:45:00;55256.47;;;-144.41;56.80
4141;BME280;2084;51.05870200;6.92092300;2022-08-21T08:47:31;55242.63;;;-144.41;56.30
4141;BME280;2084;51.05870200;6.92092300;2022-08-21T08:50:04;55268.31;;;-144.41;56.46
4141;BME280;2084;51.05870200;6.92092300;2022-08-21T08:52:34;55313.75;;;-144.41;56.37
4141;BME280;2084;51.05870200;6.92092300;2022-08-21T08:55:04;55331.56;;;-144.41;56.13
4141;BME280;2084;51.05870200;6.92092300;2022-08-21T08:57:33;55327.59;;;-144.41;55.62
4141;BME280;2084;51.05870200;6.92092300;2022-08-21T09:00:05;55386.88;;;-144.41;55.50
4141;BME280;2084;51.05870200;6.92092300;2022-08-21T09:02:35;55355.25;;;-144.41;54.69
4141;BME280;2084;51.05870200;6.92092300;2022-08-21T09:05:02;55367.13;;;-144.41;54.50
4141;BME280;2084;51.05870200;6.92092300;2022-08-21T09:07:35;55402.69;;;-144.41;55.07
4141;BME280;2084;51.05870200;6.92092300;2022-08-21T09:10:13;55430.38;;;-144.41;54.56
4141;BME280;2084;51.05870200;6.92092300;2022-08-21T09:12:50;55412.56;;;-144.41;54.40
4141;BME280;2084;51.05870200;6.92092300;2022-08-21T09:15:28;55548.94;;;-144.41;54.46
4141;BME280;2084;51.05870200;6.92092300;2022-08-21T09:18:10;55489.66;;;-144.41;53.12
4141;BME280;2084;51.05870200;6.92092300;2022-08-21T09:20:47;55497.56;;;-144.41;53.20
4141;BME280;2084;51.05870200;6.92092300;2022-08-21T09:23:35;55509.41;;;-144.41;53.18
4141;BME280;2084;51.05870200;6.92092300;2022-08-21T09:26:07;55456.06;;;-144.41;52.48
4141;BME280;2084;51.05870200;6.92092300;2022-08-21T09:28:38;55430.38;;;-144.41;52.42
4141;BME280;2084;51.05870200;6.92092300;2022-08-21T09:31:08;55430.38;;;-144.41;52.24
4141;BME280;2084;51.05870200;6.92092300;2022-08-21T09:33:39;55465.94;;;-144.41;52.29
4141;BME280;2084;51.05870200;6.92092300;2022-08-21T09:36:06;55537.09;;;-144.41;52.35
4141;BME280;2084;51.05870200;6.92092300;2022-08-21T09:38:36;55544.97;;;-144.41;53.09
4141;BME280;2084;51.05870200;6.92092300;2022-08-21T09:41:04;55548.94;;;-144.41;52.04
4141;BME280;2084;51.05870200;6.92092300;2022-08-21T09:43:33;55552.88;;;-144.41;52.32
4141;BME280;2084;51.05870200;6.92092300;2022-08-21T09:46:08;55610.22;;;-144.41;51.79
4141;BME280;2084;51.05870200;6.92092300;2022-08-21T09:48:43;55631.94;;;-144.41;52.81
4141;BME280;2084;51.05870200;6.92092300;2022-08-21T09:51:11;55614.16;;;-144.41;51.60
4141;BME280;2084;51.05870200;6.92092300;2022-08-21T09:53:44;55600.31;;;-144.41;50.83
4141;BME280;2084;51.05870200;6.92092300;2022-08-21T09:56:20;55610.22;;;-144.41;51.37
4141;BME280;2084;51.05870200;6.92092300;2022-08-21T09:59:19;55649.72;;;-144.41;50.83
4141;BME280;2084;51.05870200;6.92092300;2022-08-21T10:01:49;55616.13;;;-144.41;50.38
4141;BME280;2084;51.05870200;6.92092300;2022-08-21T10:04:22;55665.53;;;-144.41;51.06
4141;BME280;2084;51.05870200;6.92092300;2022-08-21T10:06:49;55689.25;;;-144.41;50.99
4141;BME280;2084;51.05870200;6.92092300;2022-08-21T10:09:17;55649.72;;;-144.41;49.88
4141;BME280;2084;51.05870200;6.92092300;2022-08-21T10:12:06;55714.94;;;-144.41;50.88
4141;BME280;2084;51.05870200;6.92092300;2022-08-21T10:14:45;55722.84;;;-144.41;50.28
4141;BME280;2084;51.05870200;6.92092300;2022-08-21T10:17:17;55722.84;;;-144.41;50.41
4141;BME280;2084;51.05870200;6.92092300;2022-08-21T10:19:54;55683.34;;;-144.41;50.33
4141;BME280;2084;51.05870200;6.92092300;2022-08-21T10:22:33;55744.59;;;-144.41;50.93
4141;BME280;2084;51.05870200;6.92092300;2022-08-21T10:25:08;55671.47;;;-144.41;49.78
4141;BME280;2084;51.05870200;6.92092300;2022-08-21T10:27:40;55513.38;;;-144.41;49.61
4141;BME280;2084;51.05870200;6.92092300;2022-08-21T10:30:14;55578.59;;;-144.41;50.62
4141;BME280;2084;51.05870200;6.92092300;2022-08-21T10:32:55;55505.47;;;-144.41;50.59
4141;BME280;2084;51.05870200;6.92092300;2022-08-21T10:35:29;55465.94;;;-144.41;49.88
4141;BME280;2084;51.05870200;6.92092300;2022-08-21T10:41:15;55647.75;;;-144.41;49.70
4141;BME280;2084;51.05870200;6.92092300;2022-08-21T10:43:52;55711.00;;;-144.41;49.81
4141;BME280;2084;51.05870200;6.92092300;2022-08-21T10:46:31;55762.38;;;-144.41;49.87
4141;BME280;2084;51.05870200;6.92092300;2022-08-21T10:49:13;55675.44;;;-144.41;49.08
4141;BME280;2084;51.05870200;6.92092300;2022-08-21T10:51:50;55649.72;;;-144.41;48.95
4141;BME280;2084;51.05870200;6.92092300;2022-08-21T10:54:33;55639.84;;;-144.41;48.89
4141;BME280;2084;51.05870200;6.92092300;2022-08-21T10:57:07;55718.91;;;-144.41;49.18
4141;BME280;2084;51.05870200;6.92092300;2022-08-21T10:59:41;55754.47;;;-144.41;48.32
4141;BME280;2084;51.05870200;6.92092300;2022-08-21T11:02:15;55718.91;;;-144.41;48.38
4141;BME280;2084;51.05870200;6.92092300;2022-08-21T11:04:52;55683.34;;;-144.41;48.90
4141;BME280;2084;51.05870200;6.92092300;2022-08-21T11:07:26;55724.84;;;-144.41;48.59
4141;BME280;2084;51.05870200;6.92092300;2022-08-21T11:09:58;55699.13;;;-144.41;48.68
4141;BME280;2084;51.05870200;6.92092300;2022-08-21T11:12:33;55805.88;;;-144.41;48.89
4141;BME280;2084;51.05870200;6.92092300;2022-08-21T11:15:03;55890.84;;;-144.41;49.31
4141;BME280;2084;51.05870200;6.92092300;2022-08-21T11:17:36;55837.50;;;-144.41;47.85
4141;BME280;2084;51.05870200;6.92092300;2022-08-21T11:20:08;55861.22;;;-144.41;47.67
4141;BME280;2084;51.05870200;6.92092300;2022-08-21T11:22:42;55960.03;;;-144.41;47.84
4141;BME280;2084;51.05870200;6.92092300;2022-08-21T11:25:14;55914.56;;;-144.41;47.43
4141;BME280;2084;51.05870200;6.92092300;2022-08-21T11:27:46;55936.31;;;-144.41;48.17
4141;BME280;2084;51.05870200;6.92092300;2022-08-21T11:30:15;55946.19;;;-144.41;47.03
4141;BME280;2084;51.05870200;6.92092300;2022-08-21T11:33:03;55924.47;;;-144.41;47.73
4141;BME280;2084;51.05870200;6.92092300;2022-08-21T11:35:39;55873.06;;;-144.41;46.35
4141;BME280;2084;51.05870200;6.92092300;2022-08-21T11:38:22;55944.22;;;-144.41;46.74
4141;BME280;2084;51.05870200;6.92092300;2022-08-21T11:41:02;55916.56;;;-144.41;47.69